Time;durP1;ratioP1;P1;durP2;ratioP2;P2;SDS_P1;SDS_P2;PMS_P1;PMS_P2;Temp;Humidity;BMP_temperature;BMP_pressure;BME280_temperature;BME280_humidity;BME280_pressure;Samples;Min_cycle;Max_cycle;Signal;HPM_P1;HPM_P2
2022/12/08 00:00:21;;;;;;;5.15;2.22;;;;;;;3.95;100.00;101285.78;5067370;28;20024;-77
2022/12/08 00:02:47;;;;;;;4.55;2.30;;;;;;;3.97;100.00;101270.22;5064624;28;20032;-77
2022/12/08 00:10:43;;;;;;;4.93;2.25;;;;;;;3.92;100.00;101259.84;5059946;28;20036;-77
2022/12/08 00:13:09;;;;;;;5.50;2.22;;;;;;;3.93;100.00;101257.97;5060306;28;20040;-78
2022/12/08 00:15:35;;;;;;;5.75;2.10;;;;;;;3.88;100.00;101254.81;5063075;28;20025;-76
2022/12/08 00:18:00;;;;;;;4.35;2.08;;;;;;;3.87;100.00;101258.53;5057062;28;20040;-77
2022/12/08 00:20:25;;;;;;;9.40;2.30;;;;;;;3.84;100.00;101256.13;5060549;28;20029;-77
2022/12/08 00:22:51;;;;;;;6.60;2.03;;;;;;;3.85;100.00;101250.56;5066292;28;20032;-77
2022/12/08 00:25:16;;;;;;;4.32;2.00;;;;;;;3.86;100.00;101248.72;5057540;28;20040;-77
2022/12/08 00:27:42;;;;;;;5.40;2.15;;;;;;;3.85;100.00;101244.31;5066456;28;20044;-77
2022/12/08 00:30:07;;;;;;;16.30;2.28;;;;;;;3.86;100.00;101235.16;5064789;28;20495;-76
2022/12/08 00:32:33;;;;;;;7.07;1.83;;;;;;;3.94;100.00;101238.00;5059324;28;20097;-76
2022/12/08 00:34:58;;;;;;;2.72;1.60;;;;;;;3.87;100.00;101235.03;5069316;28;20028;-76
2022/12/08 00:37:24;;;;;;;6.72;1.73;;;;;;;3.83;100.00;101227.31;5065110;28;20211;-75
2022/12/08 00:39:49;;;;;;;6.88;2.10;;;;;;;3.81;100.00;101232.03;5058080;28;20025;-77
2022/12/08 00:42:15;;;;;;;6.50;1.50;;;;;;;3.83;100.00;101225.47;5061338;28;20032;-76
2022/12/08 00:44:42;;;;;;;2.75;1.70;;;;;;;3.89;100.00;101229.44;5068057;28;20032;-77
2022/12/08 00:47:08;;;;;;;3.15;1.30;;;;;;;3.92;100.00;101229.16;5071804;28;20507;-76
2022/12/08 00:49:33;;;;;;;5.95;1.77;;;;;;;3.91;100.00;101217.44;5065507;28;20597;-77
2022/12/08 00:51:59;;;;;;;2.92;1.33;;;;;;;3.86;100.00;101205.38;5064711;28;20121;-76
2022/12/08 00:54:24;;;;;;;4.82;1.20;;;;;;;3.86;100.00;101206.19;5065071;28;20028;-77
2022/12/08 00:56:50;;;;;;;2.38;0.88;;;;;;;3.84;100.00;101201.97;5061515;28;20383;-78
2022/12/08 00:59:15;;;;;;;3.92;1.40;;;;;;;3.82;100.00;101195.81;5062637;28;20028;-76
2022/12/08 01:01:43;;;;;;;6.45;1.30;;;;;;;3.82;100.00;101187.69;5067077;28;20507;-75
2022/12/08 01:04:12;;;;;;;6.00;0.93;;;;;;;3.83;100.00;101187.53;5061118;28;20025;-76
2022/12/08 01:06:38;;;;;;;4.00;0.95;;;;;;;3.88;100.00;101189.81;5059427;28;20458;-76
2022/12/08 01:09:05;;;;;;;1.55;0.70;;;;;;;3.80;100.00;101184.28;5062824;28;20131;-76
2022/12/08 01:11:31;;;;;;;1.42;1.00;;;;;;;3.81;100.00;101194.09;5055132;28;20380;-75
2022/12/08 01:13:56;;;;;;;2.28;0.90;;;;;;;3.77;100.00;101189.97;5064379;28;20041;-76
2022/12/08 01:16:29;;;;;;;0.68;0.68;;;;;;;3.73;100.00;101184.00;5063406;28;20495;-76
2022/12/08 01:18:56;;;;;;;1.30;0.80;;;;;;;3.73;100.00;101183.13;5065498;28;20523;-76
2022/12/08 01:21:22;;;;;;;3.08;0.60;;;;;;;3.77;100.00;101179.13;5060232;28;20040;-76
2022/12/08 01:23:47;;;;;;;5.25;1.00;;;;;;;3.73;100.00;101175.00;5064674;28;20037;-77
2022/12/08 01:26:14;;;;;;;1.15;0.95;;;;;;;3.84;100.00;101172.16;5065246;28;20056;-77
2022/12/08 01:28:40;;;;;;;;;;;;;;;3.83;100.00;101167.72;5055284;28;20021;-76
2022/12/08 01:31:11;;;;;;;3.92;0.77;;;;;;;3.75;100.00;101164.91;5061341;28;19977;-76
2022/12/08 01:33:36;;;;;;;4.47;0.73;;;;;;;3.77;100.00;101161.03;5059244;28;20040;-75
2022/12/08 01:36:04;;;;;;;0.60;0.60;;;;;;;3.80;100.00;101152.59;5064403;28;20024;-77
2022/12/08 01:38:30;;;;;;;4.70;1.23;;;;;;;3.78;100.00;101161.88;5063944;28;20063;-75
2022/12/08 01:40:55;;;;;;;2.90;0.60;;;;;;;3.76;100.00;101158.47;5064062;28;20074;-77
2022/12/08 01:43:21;;;;;;;0.68;0.60;;;;;;;3.80;100.00;101160.72;5067861;28;20036;-76
2022/12/08 01:45:47;;;;;;;1.52;0.70;;;;;;;3.73;100.00;101156.91;5063539;28;20487;-75
2022/12/08 01:48:26;;;;;;;2.58;0.85;;;;;;;3.70;100.00;101167.19;5064505;28;20036;-76
2022/12/08 01:50:54;;;;;;;1.25;0.60;;;;;;;3.78;100.00;101181.72;5067679;28;20086;-76
2022/12/08 01:53:29;;;;;;;4.47;0.70;;;;;;;3.72;100.00;101179.59;5060986;28;20476;-77
2022/12/08 01:56:07;;;;;;;3.70;0.90;;;;;;;3.78;100.00;101191.69;5063302;28;20024;-77
2022/12/08 01:58:40;;;;;;;4.25;0.80;;;;;;;3.80;100.00;101184.28;5062384;28;20068;-76
2022/12/08 02:01:06;;;;;;;1.00;0.70;;;;;;;3.84;100.00;101183.81;5063940;28;20032;-76
2022/12/08 02:03:44;;;;;;;1.45;0.73;;;;;;;3.81;100.00;101185.97;5050345;28;20060;-76
2022/12/08 02:06:10;;;;;;;3.38;0.70;;;;;;;3.81;100.00;101178.72;5083591;28;20069;-77
2022/12/08 02:08:38;;;;;;;3.73;0.70;;;;;;;3.83;100.00;101159.59;5059747;28;20077;-77
2022/12/08 02:11:05;;;;;;;1.40;0.70;;;;;;;3.91;100.00;101157.00;5064549;28;20401;-77
2022/12/08 02:13:31;;;;;;;3.83;1.45;;;;;;;3.88;100.00;101149.16;5058522;28;20040;-76
2022/12/08 02:16:05;;;;;;;0.73;0.63;;;;;;;3.84;100.00;101155.91;5058562;28;20534;-76
2022/12/08 02:18:44;;;;;;;3.92;1.33;;;;;;;3.79;100.00;101136.53;5055724;28;20049;-75
2022/12/08 02:21:20;;;;;;;6.93;1.05;;;;;;;3.80;100.00;101140.94;5068438;28;20025;-77
2022/12/08 02:23:55;;;;;;;2.13;0.73;;;;;;;3.79;100.00;101139.22;5054910;28;20424;-76
2022/12/08 02:26:30;;;;;;;1.05;0.60;;;;;;;3.84;100.00;101129.66;5058925;28;20032;-76
2022/12/08 02:29:43;;;;;;;2.13;0.75;;;;;;;3.90;100.00;101137.19;5059440;28;20036;-77
2022/12/08 02:33:05;;;;;;;2.53;0.85;;;;;;;3.81;100.00;101134.50;5057062;28;20086;-77
2022/12/08 02:36:11;;;;;;;1.67;0.70;;;;;;;3.83;100.00;101129.78;5002470;28;20137;-76
2022/12/08 02:39:00;;;;;;;3.67;0.75;;;;;;;3.88;100.00;101122.06;5000391;28;20124;-77
2022/12/08 02:41:51;;;;;;;11.02;1.05;;;;;;;3.84;100.00;101124.22;5050450;28;20040;-77
2022/12/08 02:44:20;;;;;;;7.57;1.10;;;;;;;3.86;100.00;101132.22;5051022;28;20123;-75
2022/12/08 02:47:02;;;;;;;5.63;1.63;;;;;;;3.92;100.00;101129.78;5063896;28;20028;-78
2022/12/08 02:49:31;;;;;;;10.23;1.02;;;;;;;4.01;100.00;101122.59;5058446;28;20582;-77
2022/12/08 02:52:11;;;;;;;3.33;0.63;;;;;;;4.01;100.00;101125.31;5062806;28;20033;-76
2022/12/08 02:54:44;;;;;;;5.25;1.65;;;;;;;4.02;100.00;101116.19;5070219;28;20048;-75
2022/12/08 02:57:40;;;;;;;2.90;0.90;;;;;;;4.03;100.00;101116.03;5058879;28;20486;-77
2022/12/08 03:00:15;;;;;;;3.65;0.63;;;;;;;4.00;100.00;101116.31;5061743;28;20079;-77
2022/12/08 03:02:40;;;;;;;1.55;0.80;;;;;;;3.97;100.00;101107.66;5053562;28;20029;-77
2022/12/08 03:05:23;;;;;;;5.97;0.80;;;;;;;3.93;100.00;101104.38;5068994;28;20044;-78
2022/12/08 03:08:07;;;;;;;4.28;0.90;;;;;;;3.88;100.00;101112.09;5053732;28;20080;-77
2022/12/08 03:10:51;;;;;;;1.60;0.90;;;;;;;3.87;100.00;101106.81;5073945;28;20028;-77
2022/12/08 03:13:22;;;;;;;7.78;1.17;;;;;;;3.90;100.00;101101.13;5073381;28;20040;-75
2022/12/08 03:15:50;;;;;;;1.73;1.02;;;;;;;3.86;100.00;101094.28;5063553;28;20368;-77
2022/12/08 03:18:20;;;;;;;5.90;1.08;;;;;;;3.96;100.00;101101.34;5061012;28;20048;-77
2022/12/08 03:20:47;;;;;;;2.40;1.23;;;;;;;3.96;100.00;101081.56;5060356;28;20502;-77
2022/12/08 03:23:16;;;;;;;1.85;0.90;;;;;;;3.93;100.00;101071.00;5074937;28;20036;-77
2022/12/08 03:25:57;;;;;;;1.95;0.80;;;;;;;3.98;100.00;101066.84;5058163;28;20033;-78
2022/12/08 03:28:22;;;;;;;2.90;0.82;;;;;;;3.97;100.00;101061.56;5061677;28;20146;-76
2022/12/08 03:30:54;;;;;;;6.47;0.90;;;;;;;3.93;100.00;101062.88;5065506;28;20029;-77
2022/12/08 03:33:27;;;;;;;5.38;0.90;;;;;;;3.89;100.00;101062.31;5060514;28;20032;-77
2022/12/08 03:35:54;;;;;;;3.08;0.70;;;;;;;3.92;100.00;101074.72;5068224;28;20505;-77
2022/12/08 03:38:20;;;;;;;3.28;1.00;;;;;;;3.96;100.00;101052.59;5062409;28;20029;-77
2022/12/08 03:41:17;;;;;;;5.88;1.00;;;;;;;3.92;100.00;101048.50;5064223;28;20059;-76
2022/12/08 03:43:34;;;;;;;3.58;0.90;;;;;;;3.93;100.00;101052.03;5064443;28;20028;-77
2022/12/08 03:45:59;;;;;;;8.55;1.42;;;;;;;3.94;100.00;101048.31;5058713;28;20126;-78
2022/12/08 03:48:25;;;;;;;7.20;1.20;;;;;;;3.93;100.00;101038.50;5065919;28;20043;-78
2022/12/08 03:50:50;;;;;;;4.68;0.85;;;;;;;3.92;100.00;101042.22;5070448;28;20037;-79
2022/12/08 03:53:16;;;;;;;3.15;0.80;;;;;;;3.93;100.00;101043.91;5057456;28;20037;-78
2022/12/08 03:55:41;;;;;;;6.18;1.13;;;;;;;3.93;100.00;101027.66;5061715;28;20043;-79
2022/12/08 03:58:08;;;;;;;3.17;0.95;;;;;;;3.88;100.00;101038.94;5069057;28;20036;-77
2022/12/08 04:00:33;;;;;;;1.63;0.82;;;;;;;3.93;100.00;101041.19;5062269;28;20048;-75
2022/12/08 04:02:58;;;;;;;6.28;0.95;;;;;;;3.95;100.00;101052.75;5058857;28;20114;-76
2022/12/08 04:05:24;;;;;;;2.00;0.70;;;;;;;3.94;100.00;101061.88;5070974;28;20174;-78
2022/12/08 04:07:49;;;;;;;3.08;1.25;;;;;;;3.95;100.00;101061.72;5064441;28;20479;-78
2022/12/08 04:10:15;;;;;;;3.83;1.00;;;;;;;3.90;100.00;101057.78;5066289;28;20444;-77
2022/12/08 04:12:40;;;;;;;4.45;1.60;;;;;;;3.90;100.00;101052.34;5056906;28;20436;-77
2022/12/08 04:15:07;;;;;;;5.65;1.75;;;;;;;3.85;100.00;101046.53;5065401;28;20189;-76
2022/12/08 04:17:32;;;;;;;4.55;1.00;;;;;;;3.84;100.00;101048.38;5069005;28;20174;-77
2022/12/08 04:19:58;;;;;;;2.80;1.10;;;;;;;3.84;100.00;101039.41;5068553;28;20543;-78
2022/12/08 04:22:23;;;;;;;1.77;0.80;;;;;;;3.84;100.00;101039.41;5066461;28;20032;-76
2022/12/08 04:24:50;;;;;;;7.85;1.33;;;;;;;3.78;100.00;101027.31;5058722;28;20350;-77
2022/12/08 04:27:15;;;;;;;8.60;1.90;;;;;;;3.74;100.00;101025.88;5067825;28;20046;-77
2022/12/08 04:29:40;;;;;;;7.45;2.22;;;;;;;3.74;100.00;101025.06;5068255;28;20491;-77
2022/12/08 04:32:06;;;;;;;4.97;2.10;;;;;;;3.70;100.00;101024.47;5063764;28;20213;-77
2022/12/08 04:34:31;;;;;;;5.28;2.35;;;;;;;3.65;100.00;101024.09;5064903;28;20107;-76
2022/12/08 04:36:56;;;;;;;7.43;1.65;;;;;;;3.66;100.00;101027.63;5051076;28;20028;-76
2022/12/08 04:39:22;;;;;;;7.15;1.92;;;;;;;3.69;100.00;101032.78;5070515;28;20025;-77
2022/12/08 04:41:47;;;;;;;6.75;1.40;;;;;;;3.73;100.00;101021.47;5064763;28;20546;-77
2022/12/08 04:44:12;;;;;;;5.72;1.38;;;;;;;3.75;100.00;101024.88;5060199;28;20033;-78
2022/12/08 04:46:38;;;;;;;4.53;1.60;;;;;;;3.77;100.00;101025.59;5066951;28;20108;-75
2022/12/08 04:49:03;;;;;;;4.95;1.45;;;;;;;3.76;100.00;101029.31;5066851;28;20058;-76
2022/12/08 04:51:28;;;;;;;5.70;2.38;;;;;;;3.76;100.00;101029.31;5071149;28;20016;-77
2022/12/08 04:53:54;;;;;;;5.20;1.30;;;;;;;3.78;100.00;101027.31;5063719;28;20383;-76
2022/12/08 04:56:19;;;;;;;7.25;1.30;;;;;;;3.76;100.00;101039.28;5062009;28;20029;-77
2022/12/08 04:58:45;;;;;;;7.18;1.65;;;;;;;3.76;100.00;101039.28;5069423;28;20505;-78
2022/12/08 05:01:11;;;;;;;7.10;1.40;;;;;;;3.76;100.00;101039.28;5069268;28;20020;-77
2022/12/08 05:03:37;;;;;;;2.95;1.42;;;;;;;3.78;100.00;101034.56;5066722;28;20100;-77
2022/12/08 05:06:02;;;;;;;2.15;1.42;;;;;;;3.85;100.00;101027.56;5059831;28;20441;-77
2022/12/08 05:08:28;;;;;;;4.60;1.75;;;;;;;3.91;100.00;101025.09;5056619;28;20103;-75
2022/12/08 05:11:01;;;;;;;3.90;0.90;;;;;;;3.79;100.00;101015.47;5052954;28;20025;-76
2022/12/08 05:13:26;;;;;;;2.30;0.85;;;;;;;3.75;100.00;101018.63;5061758;28;20028;-75
2022/12/08 05:15:51;;;;;;;2.20;0.90;;;;;;;3.74;100.00;101023.19;5050900;28;20032;-77
2022/12/08 05:18:17;;;;;;;1.42;0.82;;;;;;;3.77;100.00;101016.59;5057506;28;20605;-77
2022/12/08 05:20:42;;;;;;;2.33;1.05;;;;;;;3.77;100.00;101019.31;5056444;28;20036;-78
2022/12/08 05:23:07;;;;;;;2.00;0.80;;;;;;;3.72;100.00;101010.78;5060908;28;20028;-77
2022/12/08 05:25:33;;;;;;;0.60;0.60;;;;;;;3.71;100.00;101009.94;5059245;28;20467;-75
2022/12/08 05:27:58;;;;;;;3.05;1.08;;;;;;;3.68;100.00;101004.81;5057167;28;20499;-77
2022/12/08 05:30:23;;;;;;;4.80;1.00;;;;;;;3.70;100.00;101004.69;5060779;28;20107;-77
2022/12/08 05:32:49;;;;;;;5.43;1.13;;;;;;;3.66;100.00;100997.84;5060537;28;20036;-74
2022/12/08 05:35:14;;;;;;;4.20;0.98;;;;;;;3.64;100.00;100995.28;5056661;28;20029;-76
2022/12/08 05:37:39;;;;;;;4.45;1.10;;;;;;;3.67;100.00;100996.84;5061781;28;20499;-76
2022/12/08 05:40:05;;;;;;;3.45;0.98;;;;;;;3.75;100.00;100997.78;5062985;28;20021;-77
2022/12/08 05:42:31;;;;;;;7.70;1.08;;;;;;;3.80;100.00;100991.94;5062430;28;20110;-75
2022/12/08 05:44:57;;;;;;;4.97;1.13;;;;;;;3.76;100.00;100977.84;5057895;28;20384;-76
2022/12/08 05:47:22;;;;;;;3.75;1.33;;;;;;;3.72;100.00;100983.69;5066131;28;20033;-77
2022/12/08 05:49:48;;;;;;;2.88;1.50;;;;;;;3.69;100.00;100987.56;5058275;28;20586;-77
2022/12/08 05:52:15;;;;;;;13.43;1.33;;;;;;;3.70;100.00;100978.44;5053398;28;20036;-76
2022/12/08 05:54:41;;;;;;;2.75;1.40;;;;;;;3.74;100.00;100987.13;5053266;28;20024;-76
2022/12/08 05:57:06;;;;;;;6.18;1.23;;;;;;;3.69;100.00;100984.03;5053101;28;20040;-75
2022/12/08 05:59:31;;;;;;;1.83;1.08;;;;;;;3.68;100.00;100979.59;5060105;28;20020;-76
2022/12/08 06:01:58;;;;;;;5.57;1.00;;;;;;;3.73;100.00;100979.97;5059301;28;20031;-76
2022/12/08 06:04:24;;;;;;;5.00;1.50;;;;;;;3.69;100.00;100981.31;5059163;28;20063;-76
2022/12/08 06:06:49;;;;;;;3.33;1.50;;;;;;;3.75;100.00;100988.84;5076766;28;20389;-77
2022/12/08 06:09:14;;;;;;;4.82;1.63;;;;;;;3.71;100.00;100987.41;5067602;28;20057;-76
2022/12/08 06:11:41;;;;;;;1.73;1.13;;;;;;;3.73;100.00;100997.09;5068810;28;20508;-77
2022/12/08 06:14:10;;;;;;;2.30;1.30;;;;;;;3.79;100.00;100992.94;5065175;28;20040;-77
2022/12/08 06:16:36;;;;;;;6.45;1.40;;;;;;;3.78;100.00;100993.94;5052459;28;20037;-75
2022/12/08 06:19:01;;;;;;;4.45;1.38;;;;;;;3.85;100.00;100995.88;5064839;28;20059;-77
2022/12/08 06:21:27;;;;;;;9.57;1.90;;;;;;;3.90;100.00;100992.75;5066533;28;20509;-78
2022/12/08 06:23:54;;;;;;;5.03;1.45;;;;;;;3.94;100.00;100988.72;5068078;28;20211;-77
2022/12/08 06:26:22;;;;;;;2.42;1.10;;;;;;;3.95;100.00;100995.84;5062254;28;20379;-77
2022/12/08 06:28:48;;;;;;;3.78;1.05;;;;;;;3.93;100.00;100992.44;5065127;28;20139;-76
2022/12/08 06:31:16;;;;;;;3.50;1.15;;;;;;;3.90;100.00;100992.75;5062269;28;20111;-76
2022/12/08 06:33:43;;;;;;;3.20;1.10;;;;;;;3.88;100.00;101001.03;5069077;28;20101;-77
2022/12/08 06:36:11;;;;;;;3.25;1.58;;;;;;;3.88;100.00;101003.72;5063026;28;20028;-74
2022/12/08 06:38:37;;;;;;;2.40;1.02;;;;;;;3.83;100.00;100999.75;5067335;28;20480;-76
2022/12/08 06:41:04;;;;;;;5.93;1.90;;;;;;;3.85;100.00;100997.75;5060933;28;20017;-78
2022/12/08 06:43:32;;;;;;;1.38;1.00;;;;;;;3.80;100.00;100997.38;5065731;28;20032;-78
2022/12/08 06:45:58;;;;;;;1.88;0.90;;;;;;;3.81;100.00;101004.47;5064427;28;20423;-77
2022/12/08 06:48:23;;;;;;;1.50;1.02;;;;;;;3.76;100.00;101004.06;5068079;28;20468;-78
2022/12/08 06:50:49;;;;;;;2.30;1.17;;;;;;;3.76;100.00;101006.78;5070318;28;20032;-76
2022/12/08 06:53:14;;;;;;;2.85;0.98;;;;;;;3.67;100.00;101015.78;5062828;28;20020;-75
2022/12/08 06:55:51;;;;;;;2.13;0.90;;;;;;;3.64;100.00;101010.69;5060810;28;20507;-74
2022/12/08 06:58:18;;;;;;;1.00;1.00;;;;;;;3.56;100.00;100992.47;5058954;28;20083;-79
2022/12/08 07:00:44;;;;;;;1.05;1.05;;;;;;;3.50;100.00;100994.91;5069293;28;20048;-77
2022/12/08 07:03:10;;;;;;;3.55;1.20;;;;;;;3.47;100.00;100985.25;5082329;28;20101;-77
2022/12/08 07:05:36;;;;;;;3.28;1.17;;;;;;;3.46;100.00;100986.25;5067890;28;20028;-77
2022/12/08 07:08:03;;;;;;;3.50;1.45;;;;;;;3.45;100.00;100978.28;5056118;28;20513;-76
2022/12/08 07:10:29;;;;;;;1.23;1.13;;;;;;;3.40;100.00;100984.13;5069401;28;20540;-76
2022/12/08 07:12:54;;;;;;;3.67;1.83;;;;;;;3.46;100.00;100993.50;5067833;28;20028;-76
2022/12/08 07:15:20;;;;;;;5.05;1.77;;;;;;;3.44;100.00;101000.94;5064723;28;20033;-76
2022/12/08 07:17:47;;;;;;;2.17;1.27;;;;;;;3.49;100.00;100990.50;5074129;28;20049;-77
2022/12/08 07:20:12;;;;;;;2.83;2.30;;;;;;;3.50;100.00;100994.91;5069809;28;20071;-77
2022/12/08 07:22:38;;;;;;;2.85;1.58;;;;;;;3.40;100.00;100985.97;5068291;28;20472;-77
2022/12/08 07:25:05;;;;;;;3.92;2.05;;;;;;;3.43;100.00;100991.94;5063423;28;20029;-77
2022/12/08 07:27:31;;;;;;;6.88;1.92;;;;;;;3.34;100.00;100983.88;5062212;28;20024;-77
2022/12/08 07:29:57;;;;;;;5.30;1.50;;;;;;;3.43;100.00;100989.25;5066452;28;20380;-76
2022/12/08 07:32:23;;;;;;;2.70;1.80;;;;;;;3.36;100.00;100980.03;5068215;28;20021;-77
2022/12/08 07:34:48;;;;;;;3.05;1.60;;;;;;;3.31;100.00;100982.31;5068211;28;20093;-77
2022/12/08 07:37:14;;;;;;;3.55;1.80;;;;;;;3.35;100.00;100980.16;5070992;28;20038;-78
2022/12/08 07:39:40;;;;;;;5.05;3.08;;;;;;;3.34;100.00;100973.03;5062022;28;20025;-77
2022/12/08 07:42:05;;;;;;;16.55;8.13;;;;;;;3.37;100.00;100978.19;5060735;28;20032;-75
2022/12/08 07:44:31;;;;;;;11.40;6.32;;;;;;;3.44;100.00;100981.97;5067978;28;20017;-77
2022/12/08 07:46:56;;;;;;;6.35;3.35;;;;;;;3.37;100.00;100970.88;5071496;28;20399;-75
2022/12/08 07:49:22;;;;;;;6.70;2.10;;;;;;;3.50;100.00;100975.97;5069201;28;21447;-78
2022/12/08 07:51:53;;;;;;;4.38;1.80;;;;;;;3.52;100.00;100976.69;5061194;28;20036;-78
2022/12/08 07:54:19;;;;;;;5.70;1.83;;;;;;;3.51;100.00;100985.78;5058366;28;20028;-79
2022/12/08 07:56:44;;;;;;;2.60;1.95;;;;;;;3.51;100.00;100983.09;5064406;28;20040;-77
2022/12/08 07:59:10;;;;;;;5.85;2.55;;;;;;;3.53;100.00;100986.50;5061226;28;20016;-77
2022/12/08 08:01:35;;;;;;;3.58;1.58;;;;;;;3.52;100.00;100992.94;5064800;28;20437;-75
2022/12/08 08:04:06;;;;;;;2.28;1.73;;;;;;;3.57;100.00;100987.91;5064608;28;20464;-78
2022/12/08 08:06:32;;;;;;;1.90;1.60;;;;;;;3.58;100.00;100985.06;5067440;28;20029;-75
2022/12/08 08:08:58;;;;;;;3.92;2.03;;;;;;;3.58;100.00;100987.75;5057147;28;20041;-77
2022/12/08 08:11:24;;;;;;;5.55;1.73;;;;;;;3.59;100.00;100989.47;5064797;28;20028;-78
2022/12/08 08:13:51;;;;;;;4.88;1.98;;;;;;;3.62;100.00;100988.31;5059150;28;20063;-77
2022/12/08 08:16:17;;;;;;;2.22;1.58;;;;;;;3.64;100.00;100994.44;5053503;28;20119;-76
2022/12/08 08:18:47;;;;;;;7.95;1.73;;;;;;;3.54;100.00;100988.22;5062196;28;20041;-76
2022/12/08 08:21:12;;;;;;;2.75;1.63;;;;;;;3.56;100.00;100980.78;5054072;28;20476;-77
2022/12/08 08:23:37;;;;;;;2.38;1.45;;;;;;;3.53;100.00;100981.09;5066827;28;20096;-77
2022/12/08 08:26:03;;;;;;;1.70;1.60;;;;;;;3.55;100.00;100981.78;5066351;28;20032;-77
2022/12/08 08:28:29;;;;;;;4.45;1.60;;;;;;;3.54;100.00;100980.94;5062502;28;20070;-76
2022/12/08 08:30:56;;;;;;;1.40;1.30;;;;;;;3.55;100.00;100981.78;5061093;28;20024;-76
2022/12/08 08:33:21;;;;;;;1.70;1.50;;;;;;;3.58;100.00;100976.94;5059780;28;20021;-77
2022/12/08 08:35:47;;;;;;;2.05;1.40;;;;;;;3.52;100.00;100974.00;5060625;28;20136;-77
2022/12/08 08:38:12;;;;;;;1.15;1.15;;;;;;;3.50;100.00;100965.13;5061540;28;20138;-77
2022/12/08 08:40:38;;;;;;;1.10;1.10;;;;;;;3.49;100.00;100969.72;5059950;28;20348;-77
2022/12/08 08:43:04;;;;;;;2.75;1.55;;;;;;;3.47;100.00;100971.69;5064489;28;20025;-77
2022/12/08 08:45:30;;;;;;;1.85;1.10;;;;;;;3.54;100.00;100971.97;5064541;28;20133;-77
2022/12/08 08:47:55;;;;;;;1.13;0.85;;;;;;;3.45;100.00;100973.72;5061370;28;20386;-76
2022/12/08 08:50:21;;;;;;;0.90;0.90;;;;;;;3.49;100.00;100971.56;5065339;28;20024;-77
2022/12/08 08:52:47;;;;;;;2.05;0.80;;;;;;;3.47;100.00;100973.56;5062898;28;20032;-77
2022/12/08 08:55:13;;;;;;;1.77;0.93;;;;;;;3.45;100.00;100975.56;5056314;28;20547;-76
2022/12/08 08:57:39;;;;;;;2.33;1.10;;;;;;;3.50;100.00;100974.13;5062018;28;20032;-76
2022/12/08 09:00:05;;;;;;;1.40;1.30;;;;;;;3.46;100.00;100971.84;5056874;28;20104;-77
2022/12/08 09:02:31;;;;;;;1.67;0.95;;;;;;;3.43;100.00;100974.88;5059031;28;20036;-77
2022/12/08 09:04:57;;;;;;;0.90;0.90;;;;;;;3.47;100.00;100970.88;5054655;28;20062;-76
2022/12/08 09:07:22;;;;;;;0.75;0.70;;;;;;;3.47;100.00;100969.00;5058224;28;20031;-77
2022/12/08 09:09:48;;;;;;;1.23;0.80;;;;;;;3.45;100.00;100976.44;5061573;28;20471;-77
2022/12/08 09:12:13;;;;;;;4.30;1.35;;;;;;;3.47;100.00;100969.00;5057868;28;20025;-75
2022/12/08 09:14:39;;;;;;;1.08;1.08;;;;;;;3.52;100.00;100974.00;5058824;28;20471;-77
2022/12/08 09:17:05;;;;;;;1.65;1.10;;;;;;;3.52;100.00;100976.69;5052164;28;20112;-75
2022/12/08 09:19:31;;;;;;;3.72;1.25;;;;;;;3.60;100.00;100983.06;5059456;28;20436;-77
2022/12/08 09:21:56;;;;;;;1.60;1.20;;;;;;;3.61;100.00;100975.78;5055010;28;20123;-76
2022/12/08 09:24:22;;;;;;;5.15;1.90;;;;;;;3.61;100.00;100982.06;5065422;28;20340;-74
2022/12/08 09:26:48;;;;;;;2.97;1.85;;;;;;;3.62;100.00;100983.75;5062225;28;20467;-74
2022/12/08 09:29:14;;;;;;;3.13;1.23;;;;;;;3.62;100.00;100982.88;5054085;28;20506;-77
2022/12/08 09:31:40;;;;;;;4.60;1.08;;;;;;;3.68;100.00;101001.28;5059901;28;20115;-75
2022/12/08 09:34:06;;;;;;;3.10;1.20;;;;;;;3.72;100.00;101008.06;5059312;28;20503;-77
2022/12/08 09:36:31;;;;;;;2.15;0.90;;;;;;;3.69;100.00;101008.41;5060435;28;20277;-75
2022/12/08 09:38:56;;;;;;;1.15;0.90;;;;;;;3.63;100.00;100999.00;5056746;28;20116;-75
2022/12/08 09:41:51;;;;;;;6.55;1.77;;;;;;;3.65;100.00;100999.72;5061257;28;20020;-76
2022/12/08 09:44:56;;;;;;;0.90;0.90;;;;;;;3.63;100.00;101004.41;5056235;28;20025;-75
2022/12/08 09:47:28;;;;;;;3.10;1.13;;;;;;;3.64;100.00;101005.28;5064054;28;20017;-77
2022/12/08 09:50:32;;;;;;;2.42;1.20;;;;;;;3.65;100.00;101009.69;5057278;28;20078;-76
2022/12/08 09:53:07;;;;;;;1.15;1.00;;;;;;;3.61;100.00;101003.72;5060667;28;20515;-76
2022/12/08 09:55:44;;;;;;;1.98;1.00;;;;;;;3.65;100.00;100993.44;5058266;28;20064;-76
2022/12/08 09:58:47;;;;;;;3.42;1.20;;;;;;;3.62;100.00;101001.84;5054811;28;20363;-77
2022/12/08 10:01:13;;;;;;;2.08;1.80;;;;;;;3.56;100.00;101005.16;5056010;28;20033;-77
2022/12/08 10:03:39;;;;;;;3.60;1.90;;;;;;;3.55;100.00;100996.19;5055536;28;20090;-76
2022/12/08 10:06:20;;;;;;;2.42;2.00;;;;;;;3.53;100.00;101005.47;5055660;28;20036;-77
2022/12/08 10:08:51;;;;;;;2.17;1.98;;;;;;;3.46;100.00;101002.50;5057134;28;20065;-75
2022/12/08 10:11:26;;;;;;;3.63;2.08;;;;;;;3.45;100.00;101005.34;5052753;28;20036;-78
2022/12/08 10:14:07;;;;;;;2.72;2.00;;;;;;;3.46;100.00;100982.69;5051058;28;20086;-77
2022/12/08 10:16:43;;;;;;;3.25;2.17;;;;;;;3.50;100.00;100984.09;5058147;28;20035;-77
2022/12/08 10:19:17;;;;;;;2.20;2.00;;;;;;;3.53;100.00;100983.81;5054757;28;20044;-77
2022/12/08 10:21:43;;;;;;;3.75;2.45;;;;;;;3.55;100.00;100982.66;5051287;28;21150;-76
2022/12/08 10:24:39;;;;;;;6.65;2.53;;;;;;;3.54;100.00;100978.22;5063274;28;20733;-77
2022/12/08 10:27:10;;;;;;;2.42;2.22;;;;;;;3.52;100.00;100976.69;5031791;28;20025;-77
2022/12/08 10:29:36;;;;;;;2.85;2.65;;;;;;;3.60;100.00;100979.50;5056563;28;20059;-77
2022/12/08 10:32:12;;;;;;;2.72;2.53;;;;;;;3.55;100.00;100971.81;5055780;28;20492;-78
2022/12/08 10:34:58;;;;;;;3.80;2.10;;;;;;;3.54;100.00;100969.25;5053072;28;20028;-76
2022/12/08 10:37:24;;;;;;;4.60;2.50;;;;;;;3.53;100.00;100971.09;5055874;28;20047;-77
2022/12/08 10:39:59;;;;;;;2.30;2.05;;;;;;;3.49;100.00;100976.97;5051997;28;20391;-77
2022/12/08 10:42:32;;;;;;;3.17;2.30;;;;;;;3.48;100.00;100967.16;5059304;28;20052;-77
2022/12/08 10:45:14;;;;;;;4.65;2.25;;;;;;;3.52;100.00;100974.00;5050702;28;20033;-77
2022/12/08 10:47:41;;;;;;;3.15;2.40;;;;;;;3.55;100.00;100965.53;5052485;28;20143;-77
2022/12/08 10:50:08;;;;;;;4.53;1.77;;;;;;;3.58;100.00;100967.97;5066511;28;20028;-76
2022/12/08 10:52:38;;;;;;;7.38;2.03;;;;;;;3.63;100.00;100966.50;5067588;28;20059;-75
2022/12/08 10:55:16;;;;;;;1.83;1.70;;;;;;;3.64;100.00;100972.78;5061699;28;20110;-78
2022/12/08 10:57:42;;;;;;;3.72;1.90;;;;;;;3.58;100.00;100962.56;5055745;28;20036;-76
2022/12/08 11:00:13;;;;;;;2.47;2.25;;;;;;;3.58;100.00;100963.38;5060056;28;20078;-77
2022/12/08 11:02:51;;;;;;;2.35;1.98;;;;;;;3.63;100.00;100963.78;5062575;28;20020;-76
2022/12/08 11:05:19;;;;;;;6.97;3.03;;;;;;;3.67;100.00;100958.91;5063799;28;20089;-76
2022/12/08 11:07:52;;;;;;;6.32;2.92;;;;;;;3.67;100.00;100964.34;5065251;28;20094;-79
2022/12/08 11:10:20;;;;;;;4.25;3.85;;;;;;;3.62;100.00;100953.97;5061922;28;20040;-77
2022/12/08 11:12:45;;;;;;;5.55;3.22;;;;;;;3.79;100.00;100960.44;5060308;28;20369;-77
2022/12/08 11:15:17;;;;;;;5.72;4.25;;;;;;;3.83;100.00;100948.28;5063906;28;20081;-77
2022/12/08 11:17:48;;;;;;;6.13;3.85;;;;;;;3.92;100.00;100959.09;5058505;28;20036;-78
2022/12/08 11:20:13;;;;;;;4.45;3.72;;;;;;;3.96;100.00;100932.53;5060470;28;20063;-77
2022/12/08 11:22:44;;;;;;;9.02;4.55;;;;;;;3.91;100.00;100943.81;5061786;28;20052;-76
2022/12/08 11:25:20;;;;;;;10.50;4.90;;;;;;;3.99;100.00;100938.50;5062121;28;20047;-76
2022/12/08 11:27:51;;;;;;;15.52;6.57;;;;;;;3.95;100.00;100942.50;5048721;28;20070;-75
2022/12/08 11:30:21;;;;;;;14.35;6.43;;;;;;;3.93;100.00;100935.53;5051469;28;20480;-75
2022/12/08 11:32:55;;;;;;;9.30;5.80;;;;;;;3.80;100.00;100935.88;5059417;28;20602;-76
2022/12/08 11:35:28;;;;;;;7.75;5.10;;;;;;;3.79;100.00;100936.06;5056605;28;20024;-77
2022/12/08 11:37:58;;;;;;;6.10;5.50;;;;;;;3.81;100.00;100932.19;5062221;28;20105;-75